createdAt,value
2017-08-18T00:00:48.900Z,11.60
2017-08-18T00:03:16.479Z,12.95
2017-08-18T00:05:44.063Z,20.95
2017-08-18T00:08:11.694Z,17.33
2017-08-18T00:10:39.263Z,14.68
2017-08-18T00:13:06.894Z,12.32
2017-08-18T00:15:34.498Z,28.92
2017-08-18T00:18:02.090Z,14.68
2017-08-18T00:20:29.721Z,15.82
2017-08-18T00:22:57.319Z,10.85
2017-08-18T00:25:24.905Z,14.87
2017-08-18T00:27:52.713Z,14.60
2017-08-18T00:30:20.235Z,13.62
2017-08-18T00:32:47.801Z,23.45
2017-08-18T00:35:15.396Z,24.40
2017-08-18T00:37:42.977Z,13.95
2017-08-18T00:40:10.604Z,23.45
2017-08-18T00:42:38.203Z,14.65
2017-08-18T00:45:05.759Z,19.15
2017-08-18T00:47:33.327Z,20.40
2017-08-18T00:50:00.938Z,18.87
2017-08-18T00:52:28.522Z,14.10
2017-08-18T00:54:56.136Z,19.77
2017-08-18T00:57:23.750Z,29.33
2017-08-18T00:59:51.320Z,19.00
2017-08-18T01:02:18.896Z,15.90
2017-08-18T01:04:46.662Z,14.80
2017-08-18T01:07:14.253Z,20.15
2017-08-18T01:09:41.822Z,24.77
2017-08-18T01:12:09.394Z,21.40
2017-08-18T01:14:36.969Z,19.30
2017-08-18T01:17:04.540Z,20.00
2017-08-18T01:19:32.264Z,18.17
2017-08-18T01:21:59.789Z,21.37
2017-08-18T01:24:27.404Z,22.37
2017-08-18T01:26:55.024Z,19.62
2017-08-18T01:29:22.610Z,16.37
2017-08-18T01:31:50.211Z,20.20
2017-08-18T01:34:18.011Z,22.25
2017-08-18T01:36:45.597Z,18.35
2017-08-18T01:39:13.155Z,17.05
2017-08-18T01:41:40.829Z,17.05
2017-08-18T01:44:08.372Z,15.00
2017-08-18T01:46:35.940Z,19.00
2017-08-18T01:49:03.591Z,20.37
2017-08-18T01:51:31.102Z,20.27
2017-08-18T01:53:58.635Z,17.05
2017-08-18T01:56:26.240Z,20.12
2017-08-18T01:58:53.838Z,17.83
2017-08-18T02:01:21.468Z,17.42
2017-08-18T02:03:49.075Z,20.65
2017-08-18T02:06:16.637Z,24.15
2017-08-18T02:08:44.229Z,20.65
2017-08-18T02:11:11.997Z,18.20
2017-08-18T02:13:39.537Z,22.62
2017-08-18T02:16:07.115Z,21.20
2017-08-18T02:18:34.887Z,23.70
2017-08-18T02:21:02.461Z,16.80
2017-08-18T02:23:30.056Z,19.85
2017-08-18T02:25:57.861Z,23.27
2017-08-18T02:28:25.441Z,21.10
2017-08-18T02:30:53.013Z,24.70
2017-08-18T02:33:20.606Z,21.48
2017-08-18T02:35:48.170Z,25.27
2017-08-18T02:38:15.740Z,21.25
2017-08-18T02:40:43.521Z,21.15
2017-08-18T02:43:11.102Z,25.10
2017-08-18T02:45:38.644Z,21.75
2017-08-18T02:48:06.296Z,21.10
2017-08-18T02:50:33.908Z,34.40
2017-08-18T02:53:01.488Z,22.50
2017-08-18T02:55:29.108Z,22.77
2017-08-18T02:57:56.670Z,22.08
2017-08-18T03:00:24.214Z,22.50
2017-08-18T03:02:51.830Z,25.58
2017-08-18T03:05:19.360Z,19.83
2017-08-18T03:07:46.953Z,25.98
2017-08-18T03:10:14.548Z,20.10
2017-08-18T03:12:42.118Z,22.13
2017-08-18T03:15:09.712Z,23.87
2017-08-18T03:17:37.371Z,20.08
2017-08-18T03:20:04.983Z,22.65
2017-08-18T03:22:32.599Z,28.33
2017-08-18T03:25:00.381Z,18.12
2017-08-18T03:27:27.914Z,22.92
2017-08-18T03:29:55.508Z,29.58
2017-08-18T03:32:23.186Z,23.35
2017-08-18T03:34:50.755Z,22.83
2017-08-18T03:37:18.364Z,23.50
2017-08-18T03:39:45.960Z,23.48
2017-08-18T03:42:13.502Z,22.23
2017-08-18T03:44:41.023Z,31.02
2017-08-18T03:47:08.702Z,28.33
2017-08-18T03:49:36.281Z,23.87
2017-08-18T03:52:03.847Z,22.92
2017-08-18T03:54:31.516Z,35.50
2017-08-18T03:56:59.092Z,22.90
2017-08-18T03:59:27.409Z,24.77
2017-08-18T04:01:55.172Z,22.75
2017-08-18T04:04:22.809Z,23.38
2017-08-18T04:06:50.396Z,34.20
2017-08-18T04:09:18.039Z,31.70
2017-08-18T04:11:45.612Z,47.42
2017-08-18T04:14:13.504Z,28.95
2017-08-18T04:16:41.262Z,21.52
2017-08-18T04:19:08.840Z,26.75
2017-08-18T04:21:36.425Z,28.65
2017-08-18T04:24:04.045Z,38.85
2017-08-18T04:26:31.653Z,29.73
2017-08-18T04:28:59.264Z,22.30
2017-08-18T04:31:26.870Z,29.58
2017-08-18T04:33:54.430Z,28.98
2017-08-18T04:36:21.975Z,25.65
2017-08-18T04:38:49.604Z,27.02
2017-08-18T04:41:17.180Z,27.75
2017-08-18T04:43:44.769Z,22.92
2017-08-18T04:46:12.436Z,26.85
2017-08-18T04:48:40.048Z,27.17
2017-08-18T04:51:07.680Z,20.30
2017-08-18T04:53:35.272Z,26.52
2017-08-18T04:56:02.845Z,23.30
2017-08-18T04:58:30.376Z,28.83
2017-08-18T05:00:58.173Z,22.08
2017-08-18T05:03:25.727Z,23.45
2017-08-18T05:05:53.282Z,24.10
2017-08-18T05:08:20.969Z,21.55
2017-08-18T05:10:48.558Z,19.70
2017-08-18T05:13:16.121Z,20.67
2017-08-18T05:15:43.736Z,20.63
2017-08-18T05:18:11.284Z,17.60
2017-08-18T05:20:38.768Z,18.97
2017-08-18T05:23:06.366Z,21.63
2017-08-18T05:25:33.906Z,47.80
2017-08-18T05:28:01.461Z,61.30
2017-08-18T05:30:29.051Z,25.03
2017-08-18T05:32:56.615Z,29.03
2017-08-18T05:35:24.153Z,21.63
2017-08-18T05:37:51.903Z,25.80
2017-08-18T05:40:20.227Z,24.50
2017-08-18T05:42:47.787Z,33.93
2017-08-18T05:45:15.411Z,34.10
2017-08-18T05:47:43.319Z,24.27
2017-08-18T05:50:10.867Z,16.90
2017-08-18T05:52:38.428Z,19.77
2017-08-18T05:55:06.087Z,15.33
2017-08-18T05:57:33.677Z,16.70
2017-08-18T06:00:01.292Z,16.07
2017-08-18T06:02:28.812Z,13.93
2017-08-18T06:04:56.332Z,13.33
2017-08-18T06:07:23.976Z,13.63
2017-08-18T06:09:51.571Z,13.27
2017-08-18T06:12:19.109Z,11.17
2017-08-18T06:14:46.690Z,17.97
2017-08-18T06:17:14.253Z,10.40
2017-08-18T06:19:41.811Z,8.90
2017-08-18T06:22:09.385Z,12.40
2017-08-18T06:24:36.919Z,8.00
2017-08-18T06:27:05.038Z,12.63
2017-08-18T06:29:32.595Z,11.60
2017-08-18T06:32:00.129Z,15.27
2017-08-18T06:34:27.655Z,20.80
2017-08-18T06:36:55.214Z,18.20
2017-08-18T06:39:23.762Z,16.07
2017-08-18T06:41:51.339Z,15.70
2017-08-18T06:44:19.071Z,11.17
2017-08-18T06:46:46.600Z,11.50
2017-08-18T06:49:14.234Z,12.17
2017-08-18T06:51:41.815Z,8.40
2017-08-18T06:54:09.318Z,7.83
2017-08-18T06:56:36.829Z,10.77
2017-08-18T06:59:04.566Z,8.50
2017-08-18T07:01:32.124Z,8.03
2017-08-18T07:03:59.654Z,7.60
2017-08-18T07:06:27.213Z,10.07
2017-08-18T07:08:54.783Z,12.60
2017-08-18T07:11:22.374Z,7.33
2017-08-18T07:13:49.948Z,6.73
2017-08-18T07:16:17.498Z,7.43
2017-08-18T07:18:45.053Z,14.63
2017-08-18T07:21:12.829Z,5.73
2017-08-18T07:23:40.358Z,6.03
2017-08-18T07:26:07.904Z,8.83
2017-08-18T07:28:35.440Z,6.13
2017-08-18T07:31:03.011Z,5.20
2017-08-18T07:33:30.562Z,8.50
2017-08-18T07:35:58.284Z,8.30
2017-08-18T07:38:26.788Z,10.73
2017-08-18T07:40:54.355Z,9.83
2017-08-18T07:43:22.110Z,7.17
2017-08-18T07:45:49.664Z,8.60
2017-08-18T07:48:17.248Z,10.83
2017-08-18T07:50:44.856Z,3.47
2017-08-18T07:53:12.390Z,4.10
2017-08-18T07:55:39.966Z,3.17
2017-08-18T07:58:07.541Z,3.33
2017-08-18T08:00:35.090Z,16.17
2017-08-18T08:03:02.655Z,7.33
2017-08-18T08:05:30.261Z,12.90
2017-08-18T08:07:57.852Z,4.50
2017-08-18T08:10:25.390Z,8.53
2017-08-18T08:12:53.082Z,4.50
2017-08-18T08:15:20.642Z,3.63
2017-08-18T08:17:48.206Z,2.90
2017-08-18T08:20:16.011Z,5.53
2017-08-18T08:22:43.973Z,2.20
2017-08-18T08:25:11.538Z,3.30
2017-08-18T08:27:39.297Z,2.70
2017-08-18T08:30:06.868Z,1.90
2017-08-18T08:32:34.388Z,3.80
2017-08-18T08:35:01.978Z,11.90
2017-08-18T08:37:29.496Z,3.30
2017-08-18T08:39:57.041Z,5.90
2017-08-18T08:42:24.618Z,5.00
2017-08-18T08:44:52.200Z,4.20
2017-08-18T08:47:19.771Z,2.17
2017-08-18T08:49:47.544Z,3.63
2017-08-18T08:52:15.033Z,6.10
2017-08-18T08:54:42.607Z,4.33
2017-08-18T08:57:10.204Z,2.60
2017-08-18T08:59:37.725Z,3.53
2017-08-18T09:02:05.287Z,5.00
2017-08-18T09:04:32.885Z,3.30
2017-08-18T09:07:00.446Z,1.90
2017-08-18T09:09:27.959Z,2.03
2017-08-18T09:11:55.837Z,1.70
2017-08-18T09:14:23.405Z,2.20
2017-08-18T09:16:50.952Z,2.13
2017-08-18T09:19:18.526Z,2.40
2017-08-18T09:21:46.086Z,5.00
2017-08-18T09:24:13.710Z,1.87
2017-08-18T09:26:41.430Z,5.40
2017-08-18T09:29:08.994Z,3.00
2017-08-18T09:31:36.570Z,4.47
2017-08-18T09:34:04.586Z,2.17
2017-08-18T09:36:32.174Z,2.80
2017-08-18T09:38:59.736Z,2.20
2017-08-18T09:41:27.557Z,5.03
2017-08-18T09:43:55.171Z,6.13
2017-08-18T09:46:23.492Z,9.00
2017-08-18T09:49:02.884Z,6.13
2017-08-18T09:51:42.133Z,4.70
2017-08-18T09:54:36.185Z,3.27
2017-08-18T09:57:15.434Z,2.40
2017-08-18T09:59:43.067Z,6.07
2017-08-18T10:02:10.619Z,5.23
2017-08-18T10:04:39.282Z,7.60
2017-08-18T10:07:10.722Z,4.67
2017-08-18T10:09:38.314Z,4.30
2017-08-18T10:12:05.889Z,2.80
2017-08-18T10:14:33.529Z,3.33
2017-08-18T10:17:01.068Z,4.97
2017-08-18T10:19:28.628Z,3.70
2017-08-18T10:21:56.188Z,3.47
2017-08-18T10:24:23.797Z,7.43
2017-08-18T10:26:51.350Z,2.50
2017-08-18T10:29:18.999Z,8.73
2017-08-18T10:31:46.525Z,4.53
2017-08-18T10:34:14.459Z,3.87
2017-08-18T10:36:42.062Z,5.03
2017-08-18T10:39:09.618Z,5.30
2017-08-18T10:41:37.263Z,2.63
2017-08-18T10:44:04.882Z,4.40
2017-08-18T10:46:32.463Z,4.70
2017-08-18T10:49:00.013Z,6.50
2017-08-18T10:51:27.957Z,5.03
2017-08-18T10:53:58.175Z,3.07
2017-08-18T10:56:26.163Z,3.33
2017-08-18T10:58:54.293Z,5.47
2017-08-18T11:01:25.969Z,3.97
2017-08-18T11:03:54.534Z,3.40
2017-08-18T11:06:22.983Z,17.07
2017-08-18T11:08:50.632Z,3.63
2017-08-18T11:11:18.407Z,5.87
2017-08-18T11:13:46.127Z,4.93
2017-08-18T11:16:14.956Z,6.30
2017-08-18T11:18:42.776Z,4.17
2017-08-18T11:21:10.741Z,4.97
2017-08-18T11:23:38.293Z,8.73
2017-08-18T11:26:05.877Z,10.70
2017-08-18T11:28:33.550Z,5.47
2017-08-18T11:31:01.201Z,6.70
2017-08-18T11:33:29.419Z,13.63
2017-08-18T11:35:57.456Z,10.87
2017-08-18T11:38:25.188Z,10.80
2017-08-18T11:40:53.615Z,8.50
2017-08-18T11:43:21.551Z,8.87
2017-08-18T11:45:49.607Z,9.70
2017-08-18T11:48:17.819Z,9.33
2017-08-18T11:50:45.906Z,16.23
2017-08-18T11:53:14.840Z,7.57
2017-08-18T11:55:43.642Z,9.13
2017-08-18T11:58:12.088Z,10.47
2017-08-18T12:00:40.795Z,12.90
2017-08-18T12:03:09.898Z,12.00
2017-08-18T12:05:38.662Z,8.23
2017-08-18T12:08:06.617Z,16.73
2017-08-18T12:10:34.575Z,11.40
2017-08-18T12:13:02.791Z,13.00
2017-08-18T12:15:31.099Z,6.70
2017-08-18T12:17:59.111Z,13.93
2017-08-18T12:20:26.936Z,9.00
2017-08-18T12:22:56.044Z,9.30
2017-08-18T12:25:23.876Z,11.83
2017-08-18T12:27:51.722Z,5.77
2017-08-18T12:30:19.632Z,6.73
2017-08-18T12:32:48.061Z,6.43
2017-08-18T12:35:16.083Z,5.10
2017-08-18T12:37:43.805Z,5.60
2017-08-18T12:40:11.409Z,5.77
2017-08-18T12:42:39.660Z,5.20
2017-08-18T12:45:08.032Z,5.50
2017-08-18T12:47:36.008Z,9.30
2017-08-18T12:50:04.157Z,14.73
2017-08-18T12:52:32.184Z,13.73
2017-08-18T12:55:00.171Z,6.43
2017-08-18T12:57:27.998Z,12.27
2017-08-18T12:59:55.786Z,9.03
2017-08-18T13:02:23.510Z,11.97
2017-08-18T13:04:51.803Z,6.10
2017-08-18T13:07:19.457Z,5.13
2017-08-18T13:09:47.091Z,7.90
2017-08-18T13:12:14.880Z,9.33
2017-08-18T13:14:43.050Z,4.80
2017-08-18T13:17:11.235Z,5.17
2017-08-18T13:19:38.881Z,5.40
2017-08-18T13:22:06.526Z,5.60
2017-08-18T13:24:34.481Z,8.63
2017-08-18T13:27:02.936Z,7.30
2017-08-18T13:29:30.795Z,17.10
2017-08-18T13:31:58.331Z,6.30
2017-08-18T13:34:26.175Z,13.00
2017-08-18T13:36:53.772Z,9.90
2017-08-18T13:39:25.571Z,9.27
2017-08-18T13:41:54.531Z,9.73
2017-08-18T13:44:22.679Z,13.80
2017-08-18T13:46:51.468Z,5.63
2017-08-18T13:49:20.351Z,4.50
2017-08-18T13:51:48.076Z,5.13
2017-08-18T13:54:16.041Z,6.63
2017-08-18T13:56:45.165Z,12.23
2017-08-18T13:59:13.571Z,9.63
2017-08-18T14:01:41.679Z,10.97
2017-08-18T14:04:10.021Z,8.43
2017-08-18T14:06:37.900Z,4.93
2017-08-18T14:09:05.741Z,4.93
2017-08-18T14:11:33.591Z,12.83
2017-08-18T14:14:01.324Z,6.13
2017-08-18T14:16:29.338Z,9.27
2017-08-18T14:18:57.471Z,9.77
2017-08-18T14:21:25.248Z,10.97
2017-08-18T14:23:52.864Z,5.83
2017-08-18T14:26:26.044Z,8.57
2017-08-18T14:28:53.635Z,8.43
2017-08-18T14:31:21.204Z,7.97
2017-08-18T14:33:48.842Z,12.83
2017-08-18T14:36:16.577Z,12.73
2017-08-18T14:38:44.238Z,11.30
2017-08-18T14:41:12.040Z,8.60
2017-08-18T14:43:39.825Z,8.70
2017-08-18T14:46:07.745Z,9.63
2017-08-18T14:48:35.650Z,11.10
2017-08-18T14:51:03.309Z,11.07
2017-08-18T14:53:30.892Z,7.87
2017-08-18T14:55:58.518Z,7.57
2017-08-18T14:58:26.115Z,8.70
2017-08-18T15:00:53.705Z,8.77
2017-08-18T15:03:21.289Z,7.40
2017-08-18T15:05:48.929Z,8.40
2017-08-18T15:08:16.465Z,14.03
2017-08-18T15:10:44.051Z,9.60
2017-08-18T15:13:11.639Z,16.23
2017-08-18T15:15:40.375Z,14.30
2017-08-18T15:18:08.034Z,14.33
2017-08-18T15:20:36.562Z,8.90
2017-08-18T15:23:04.368Z,16.83
2017-08-18T15:25:32.132Z,8.53
2017-08-18T15:27:59.718Z,9.00
2017-08-18T15:30:29.484Z,13.10
2017-08-18T15:32:58.643Z,20.43
2017-08-18T15:35:26.552Z,13.87
2017-08-18T15:37:55.716Z,10.47
2017-08-18T15:40:24.270Z,8.30
2017-08-18T15:42:52.222Z,11.67
2017-08-18T15:45:20.087Z,10.80
2017-08-18T15:47:49.702Z,27.03
2017-08-18T15:50:17.932Z,15.03
2017-08-18T15:52:47.423Z,19.57
2017-08-18T15:55:16.544Z,9.77
2017-08-18T15:57:46.130Z,17.73
2017-08-18T16:00:13.993Z,12.20
2017-08-18T16:02:42.829Z,11.33
2017-08-18T16:05:11.429Z,8.20
2017-08-18T16:07:40.277Z,16.20
2017-08-18T16:10:09.472Z,14.37
2017-08-18T16:12:38.414Z,12.63
2017-08-18T16:15:07.919Z,8.27
2017-08-18T16:17:36.495Z,11.40
2017-08-18T16:20:05.231Z,8.70
2017-08-18T16:22:33.975Z,15.17
2017-08-18T16:25:03.313Z,11.50
2017-08-18T16:27:32.446Z,10.50
2017-08-18T16:30:02.794Z,10.53
2017-08-18T16:32:31.454Z,11.37
2017-08-18T16:35:00.439Z,13.30
2017-08-18T16:37:29.016Z,8.90
2017-08-18T16:39:57.679Z,7.60
2017-08-18T16:42:25.707Z,14.67
2017-08-18T16:44:53.918Z,8.50
2017-08-18T16:47:23.236Z,10.90
2017-08-18T16:49:51.346Z,12.67
2017-08-18T16:52:19.399Z,15.70
2017-08-18T16:54:47.452Z,10.70
2017-08-18T16:57:15.699Z,13.27
2017-08-18T16:59:43.850Z,11.67
2017-08-18T17:02:16.017Z,10.47
2017-08-18T17:04:44.142Z,11.80
2017-08-18T17:07:12.252Z,11.53
2017-08-18T17:09:46.289Z,9.93
2017-08-18T17:12:20.287Z,19.23
2017-08-18T17:14:49.830Z,17.33
2017-08-18T17:17:18.732Z,10.13
2017-08-18T17:19:46.862Z,15.23
2017-08-18T17:22:15.596Z,13.53
2017-08-18T17:24:43.721Z,15.50
2017-08-18T17:27:12.275Z,21.50
2017-08-18T17:29:40.972Z,11.30
2017-08-18T17:32:09.753Z,11.73
2017-08-18T17:34:37.794Z,12.03
2017-08-18T17:37:09.555Z,12.47
2017-08-18T17:39:37.719Z,14.50
2017-08-18T17:42:07.177Z,12.07
2017-08-18T17:44:36.165Z,12.70
2017-08-18T17:47:03.975Z,13.70
2017-08-18T17:49:32.143Z,10.30
2017-08-18T17:52:01.167Z,14.90
2017-08-18T17:54:28.998Z,8.63
2017-08-18T17:56:57.090Z,13.40
2017-08-18T17:59:25.264Z,14.00
2017-08-18T18:01:53.249Z,13.80
2017-08-18T18:04:22.026Z,19.37
2017-08-18T18:06:53.584Z,17.83
2017-08-18T18:09:21.903Z,13.93
2017-08-18T18:11:53.654Z,20.93
2017-08-18T18:14:22.882Z,17.40
2017-08-18T18:16:55.779Z,13.80
2017-08-18T18:19:24.224Z,16.03
2017-08-18T18:21:52.302Z,16.17
2017-08-18T18:24:21.133Z,16.43
2017-08-18T18:26:50.523Z,19.30
2017-08-18T18:29:19.069Z,9.80
2017-08-18T18:31:49.750Z,12.30
2017-08-18T18:34:18.209Z,12.23
2017-08-18T18:36:46.167Z,8.80
2017-08-18T18:39:15.141Z,13.93
2017-08-18T18:41:43.622Z,12.90
2017-08-18T18:44:11.650Z,13.40
2017-08-18T18:46:40.965Z,11.37
2017-08-18T18:49:09.082Z,15.07
2017-08-18T18:51:37.077Z,15.30
2017-08-18T18:54:05.657Z,14.67
2017-08-18T18:56:33.502Z,16.10
2017-08-18T18:59:01.522Z,9.93
2017-08-18T19:01:29.278Z,18.50
2017-08-18T19:03:57.361Z,12.93
2017-08-18T19:06:25.233Z,13.53
2017-08-18T19:08:53.221Z,10.77
2017-08-18T19:11:21.003Z,15.50
2017-08-18T19:13:48.974Z,10.87
2017-08-18T19:16:16.942Z,11.00
2017-08-18T19:18:45.739Z,17.23
2017-08-18T19:21:13.825Z,18.43
2017-08-18T19:23:42.189Z,15.23
2017-08-18T19:26:10.961Z,45.50
2017-08-18T19:28:39.075Z,8.27
2017-08-18T19:31:07.075Z,25.43
2017-08-18T19:33:38.362Z,20.90
2017-08-18T19:36:06.231Z,18.30
2017-08-18T19:38:34.095Z,14.90
2017-08-18T19:41:02.222Z,20.07
2017-08-18T19:43:31.122Z,15.35
2017-08-18T19:45:59.609Z,22.27
2017-08-18T19:48:27.945Z,15.27
2017-08-18T19:50:56.323Z,14.85
2017-08-18T19:53:24.351Z,16.87
2017-08-18T19:55:52.474Z,13.32
2017-08-18T19:58:28.597Z,15.13
2017-08-18T20:00:56.779Z,15.02
2017-08-18T20:03:24.659Z,16.48
2017-08-18T20:05:53.646Z,16.30
2017-08-18T20:08:21.732Z,17.15
2017-08-18T20:10:51.071Z,25.15
2017-08-18T20:13:19.732Z,17.12
2017-08-18T20:15:47.882Z,21.73
2017-08-18T20:18:15.909Z,25.50
2017-08-18T20:20:44.089Z,16.05
2017-08-18T20:23:12.148Z,15.85
2017-08-18T20:25:40.370Z,19.52
2017-08-18T20:28:08.945Z,11.98
2017-08-18T20:30:37.274Z,19.03
2017-08-18T20:33:05.514Z,10.98
2017-08-18T20:35:33.577Z,16.85
2017-08-18T20:38:01.783Z,15.13
2017-08-18T20:40:31.469Z,18.15
2017-08-18T20:42:59.591Z,12.55
2017-08-18T20:45:27.379Z,12.20
2017-08-18T20:47:54.944Z,8.27
2017-08-18T20:50:22.476Z,9.90
2017-08-18T20:52:51.518Z,6.37
2017-08-18T21:06:42.826Z,14.25
2017-08-18T21:09:10.426Z,13.38
2017-08-18T21:11:38.005Z,5.87
2017-08-18T21:14:05.607Z,2.85
2017-08-18T21:16:33.127Z,2.05
2017-08-18T21:19:00.677Z,4.12
2017-08-18T21:21:28.443Z,6.15
2017-08-18T21:23:56.633Z,4.35
2017-08-18T21:26:24.220Z,3.08
2017-08-18T21:28:51.826Z,3.70
2017-08-18T21:31:19.373Z,4.80
2017-08-18T21:33:46.953Z,5.95
2017-08-18T21:36:14.657Z,2.20
2017-08-18T21:38:42.202Z,7.55
2017-08-18T21:41:09.741Z,2.78
2017-08-18T21:43:37.420Z,3.20
2017-08-18T21:46:04.993Z,5.45
2017-08-18T21:48:32.558Z,4.70
2017-08-18T21:51:00.088Z,1.98
2017-08-18T21:53:27.631Z,8.07
2017-08-18T21:55:55.215Z,3.78
2017-08-18T21:58:22.777Z,3.30
2017-08-18T22:00:50.345Z,3.37
2017-08-18T22:03:17.867Z,4.30
2017-08-18T22:05:45.563Z,4.28
2017-08-18T22:08:13.844Z,4.93
2017-08-18T22:10:41.411Z,5.05
2017-08-18T22:13:08.969Z,3.03
2017-08-18T22:15:36.531Z,2.10
2017-08-18T22:18:04.122Z,11.80
2017-08-18T22:20:31.804Z,2.87
2017-08-18T22:22:59.396Z,5.95
2017-08-18T22:25:27.558Z,5.70
2017-08-18T22:27:55.117Z,5.82
2017-08-18T22:30:22.676Z,3.72
2017-08-18T22:32:50.269Z,7.57
2017-08-18T22:35:17.845Z,4.28
2017-08-18T22:37:46.071Z,7.57
2017-08-18T22:40:13.639Z,5.53
2017-08-18T22:42:41.225Z,4.05
2017-08-18T22:45:08.804Z,5.60
2017-08-18T22:47:36.400Z,5.22
2017-08-18T22:50:03.975Z,5.50
2017-08-18T22:52:31.525Z,7.32
2017-08-18T22:54:59.119Z,5.12
2017-08-18T22:57:26.732Z,5.65
2017-08-18T22:59:54.282Z,6.62
2017-08-18T23:02:21.856Z,6.72
2017-08-18T23:04:49.604Z,5.35
2017-08-18T23:07:17.153Z,5.65
2017-08-18T23:09:44.714Z,4.30
2017-08-18T23:12:12.406Z,6.28
2017-08-18T23:14:39.988Z,5.53
2017-08-18T23:17:08.650Z,4.62
2017-08-18T23:19:36.264Z,5.15
2017-08-18T23:22:03.806Z,3.22
2017-08-18T23:24:31.343Z,3.70
2017-08-18T23:26:58.920Z,6.32
2017-08-18T23:29:26.421Z,4.25
2017-08-18T23:31:53.995Z,3.55
2017-08-18T23:34:21.632Z,3.22
2017-08-18T23:36:49.193Z,4.35
2017-08-18T23:39:16.778Z,4.32
2017-08-18T23:41:44.499Z,4.78
2017-08-18T23:44:12.049Z,8.13
2017-08-18T23:46:39.595Z,6.78
2017-08-18T23:49:07.161Z,5.68
2017-08-18T23:51:34.659Z,3.78
2017-08-18T23:54:02.180Z,4.28
2017-08-18T23:56:29.758Z,6.95
2017-08-18T23:58:57.299Z,4.62
